Time;durP1;ratioP1;P1;durP2;ratioP2;P2;SDS_P1;SDS_P2;PMS_P1;PMS_P2;Temp;Humidity;BMP_temperature;BMP_pressure;BME280_temperature;BME280_humidity;BME280_pressure;Samples;Min_cycle;Max_cycle;Signal;HPM_P1;HPM_P2
2022/03/03 00:03:49;;;;;;;29.65;16.23;;;;;;;1.46;53.74;100989.66;8242232;34;20447;-75
2022/03/03 00:08:54;;;;;;;28.83;16.10;;;;;;;1.13;55.40;100997.78;8244014;34;20431;-75
2022/03/03 00:13:57;;;;;;;28.65;16.05;;;;;;;1.00;55.65;100984.06;8247271;34;20157;-76
2022/03/03 00:19:00;;;;;;;32.88;16.17;;;;;;;1.00;55.81;100989.38;8248970;34;20437;-76
2022/03/03 00:24:06;;;;;;;31.75;16.42;;;;;;;0.86;56.14;100980.16;8247776;34;21034;-76
2022/03/03 00:29:09;;;;;;;31.88;16.38;;;;;;;0.76;56.27;100972.47;8237559;34;20259;-76
2022/03/03 00:34:13;;;;;;;31.03;16.83;;;;;;;0.44;56.48;100957.63;8237168;34;21063;-75
2022/03/03 00:39:17;;;;;;;25.87;14.33;;;;;;;0.13;57.77;100961.13;8248655;34;20175;-76
2022/03/03 00:44:20;;;;;;;29.17;16.77;;;;;;;0.36;57.56;100952.56;8248011;34;20534;-76
2022/03/03 00:49:23;;;;;;;31.80;16.20;;;;;;;0.41;57.53;100948.88;8249408;34;20699;-76
2022/03/03 00:54:28;;;;;;;28.97;15.37;;;;;;;0.44;57.66;100943.50;8247417;34;20444;-75
2022/03/03 00:59:31;;;;;;;32.13;15.80;;;;;;;0.43;57.55;100941.78;8247917;35;20645;-76
2022/03/03 01:04:34;;;;;;;28.37;15.67;;;;;;;0.48;57.65;100939.88;8248774;35;20513;-76
2022/03/03 01:09:38;;;;;;;31.93;16.83;;;;;;;0.48;58.20;100927.53;8242659;35;20685;-76
2022/03/03 01:14:41;;;;;;;30.80;15.73;;;;;;;0.50;57.96;100935.41;8243864;35;21055;-76
2022/03/03 01:19:44;;;;;;;32.37;16.20;;;;;;;0.49;57.78;100933.66;8254499;34;21008;-76
2022/03/03 01:24:49;;;;;;;30.33;16.93;;;;;;;0.34;58.11;100935.88;8266810;34;20488;-76
2022/03/03 01:29:52;;;;;;;28.47;15.80;;;;;;;0.20;58.65;100937.19;8252247;34;20149;-75
2022/03/03 01:34:55;;;;;;;32.37;16.37;;;;;;;0.11;59.63;100939.19;8253706;34;20520;-75
2022/03/03 01:40:00;;;;;;;29.97;16.20;;;;;;;0.06;59.95;100932.31;8248658;34;20156;-75
2022/03/03 01:45:05;;;;;;;26.63;15.60;;;;;;;-0.10;60.66;100923.94;8247063;34;20432;-75
2022/03/03 01:50:09;;;;;;;32.13;15.80;;;;;;;-0.29;61.92;100932.38;8239769;34;20560;-75
2022/03/03 01:55:14;;;;;;;28.17;14.93;;;;;;;-0.29;61.85;100929.72;8250919;34;20464;-75
2022/03/03 02:00:19;;;;;;;28.93;16.73;;;;;;;-0.37;62.88;100937.00;8250663;34;20525;-75
2022/03/03 02:05:21;;;;;;;29.37;16.17;;;;;;;-0.53;63.81;100933.03;8242451;34;20600;-76
2022/03/03 02:10:26;;;;;;;28.40;16.20;;;;;;;-0.53;63.82;100915.41;8240979;34;20503;-75
2022/03/03 02:15:29;;;;;;;30.33;16.50;;;;;;;-0.35;63.37;100914.06;8249490;34;20445;-75
2022/03/03 02:20:34;;;;;;;36.40;16.97;;;;;;;-0.37;63.47;100910.59;8247580;34;20859;-76
2022/03/03 02:25:37;;;;;;;32.67;17.90;;;;;;;-0.35;63.81;100900.00;8251701;34;20292;-75
2022/03/03 02:30:40;;;;;;;31.90;16.83;;;;;;;-0.37;64.37;100899.19;8250142;34;20292;-75
2022/03/03 02:35:44;;;;;;;29.17;16.53;;;;;;;-0.35;64.60;100890.31;8250552;34;20889;-75
2022/03/03 02:40:47;;;;;;;32.07;17.10;;;;;;;-0.35;65.31;100890.31;8245287;34;20537;-75
2022/03/03 02:45:50;;;;;;;30.30;16.73;;;;;;;-0.31;64.40;100897.22;8241514;34;20544;-75
2022/03/03 02:50:55;;;;;;;30.80;16.97;;;;;;;-0.44;64.53;100887.03;8244767;34;20148;-75
2022/03/03 02:55:58;;;;;;;32.23;16.80;;;;;;;-0.52;64.58;100893.41;8242335;34;20613;-75
2022/03/03 03:01:03;;;;;;;31.20;16.33;;;;;;;-0.51;64.44;100891.63;8250527;34;21124;-75
2022/03/03 03:06:08;;;;;;;31.87;16.70;;;;;;;-0.40;64.06;100893.97;8249574;34;20220;-76
2022/03/03 03:11:11;;;;;;;34.30;16.13;;;;;;;-0.36;63.66;100885.91;8249437;34;20583;-75
2022/03/03 03:16:14;;;;;;;34.83;17.37;;;;;;;-0.46;63.37;100883.59;8246484;34;20500;-75
2022/03/03 03:21:19;;;;;;;32.30;15.83;;;;;;;-0.49;63.18;100879.28;8245216;34;20853;-75
2022/03/03 03:26:22;;;;;;;32.27;16.30;;;;;;;-0.43;63.21;100889.66;8243432;34;20259;-76
2022/03/03 03:31:26;;;;;;;31.37;16.63;;;;;;;-0.49;63.29;100889.81;8234197;34;20256;-76
2022/03/03 03:36:31;;;;;;;30.20;16.23;;;;;;;-0.60;63.51;100887.47;8242703;34;20148;-76
2022/03/03 03:41:34;;;;;;;28.63;15.80;;;;;;;-0.64;63.58;100887.59;8242484;34;21015;-76
2022/03/03 03:46:37;;;;;;;30.30;16.37;;;;;;;-0.75;63.58;100891.38;8243240;34;20466;-75
2022/03/03 03:51:42;;;;;;;32.77;16.03;;;;;;;-0.95;64.11;100894.53;8249551;34;20615;-75
2022/03/03 03:56:45;;;;;;;35.63;16.57;;;;;;;-1.11;65.19;100892.31;8248450;34;20275;-75
2022/03/03 04:01:48;;;;;;;30.80;17.03;;;;;;;-1.26;65.90;100893.53;8246327;34;20243;-75
2022/03/03 04:06:53;;;;;;;30.30;16.63;;;;;;;-1.24;66.55;100876.78;8242611;34;20431;-75
2022/03/03 04:11:56;;;;;;;35.07;17.23;;;;;;;-1.03;66.29;100877.16;8239934;34;20152;-76
2022/03/03 04:16:59;;;;;;;28.80;15.93;;;;;;;-0.98;66.45;100884.06;8247668;34;20272;-75
2022/03/03 04:22:04;;;;;;;31.57;17.37;;;;;;;-0.88;66.45;100878.53;8249535;34;20451;-75
2022/03/03 04:27:07;;;;;;;33.33;18.07;;;;;;;-0.89;66.02;100877.66;8234619;34;20537;-75
2022/03/03 04:32:11;;;;;;;32.07;17.90;;;;;;;-0.97;66.36;100884.91;8236979;34;20423;-75
2022/03/03 04:37:15;;;;;;;32.20;16.63;;;;;;;-1.13;66.36;100870.38;8246992;34;20498;-75
2022/03/03 04:42:18;;;;;;;35.97;17.67;;;;;;;-1.22;67.14;100856.53;8245077;34;20353;-75
2022/03/03 04:47:21;;;;;;;29.90;17.77;;;;;;;-1.52;67.67;100858.13;8243711;34;20268;-75
2022/03/03 04:52:25;;;;;;;36.53;18.03;;;;;;;-1.68;68.10;100840.94;8243509;34;20458;-75
2022/03/03 04:57:29;;;;;;;32.57;16.87;;;;;;;-1.60;68.14;100836.34;8244286;34;20490;-75
2022/03/03 05:02:32;;;;;;;33.23;17.67;;;;;;;-1.52;67.97;100830.91;8241742;35;20854;-75
2022/03/03 05:07:37;;;;;;;33.27;17.57;;;;;;;-1.53;67.98;100850.28;8196827;35;20441;-75
2022/03/03 05:12:40;;;;;;;33.93;18.03;;;;;;;-1.53;67.34;100852.91;8224438;35;20236;-75
2022/03/03 05:17:43;;;;;;;36.37;19.27;;;;;;;-1.59;67.41;100832.84;8249410;35;20243;-75
2022/03/03 05:22:47;;;;;;;33.07;18.20;;;;;;;-1.40;67.50;100833.25;8241294;35;20153;-75
2022/03/03 05:27:51;;;;;;;33.47;19.00;;;;;;;-1.47;66.93;100836.94;8224882;35;20589;-75
2022/03/03 05:32:54;;;;;;;32.97;17.43;;;;;;;-1.73;66.91;100851.56;8230816;35;20997;-74
2022/03/03 05:37:59;;;;;;;36.47;18.83;;;;;;;-1.87;67.67;100849.25;8218388;35;20279;-74
2022/03/03 05:43:02;;;;;;;37.60;18.57;;;;;;;-1.98;68.38;100853.03;8239471;35;20990;-75
2022/03/03 05:48:06;;;;;;;38.03;19.60;;;;;;;-1.98;68.78;100848.63;8244234;35;20137;-74
2022/03/03 05:53:10;;;;;;;34.90;18.73;;;;;;;-1.92;68.77;100852.88;8225586;35;20661;-73
2022/03/03 05:58:18;;;;;;;31.50;18.23;;;;;;;-1.88;68.77;100867.72;8270010;29;20365;-76
2022/03/03 06:03:22;;;;;;;37.70;18.27;;;;;;;-1.87;68.64;100857.16;8276902;34;20211;-76
2022/03/03 06:08:32;;;;;;;40.67;19.07;;;;;;;-1.78;69.23;100850.84;8294571;34;20144;-76
2022/03/03 06:13:40;;;;;;;33.67;19.37;;;;;;;-1.68;69.07;100868.16;8299592;34;20416;-76
2022/03/03 06:18:46;;;;;;;34.87;20.07;;;;;;;-1.50;68.61;100868.66;8303793;34;20471;-76
2022/03/03 06:23:51;;;;;;;34.27;17.60;;;;;;;-1.33;68.06;100866.47;8305722;34;21097;-76
2022/03/03 06:28:54;;;;;;;41.00;23.03;;;;;;;-1.44;67.43;100876.41;8311090;34;20219;-76
2022/03/03 06:33:57;;;;;;;36.53;19.67;;;;;;;-1.34;67.52;100887.56;8315582;34;20705;-76
2022/03/03 06:39:01;;;;;;;31.73;18.00;;;;;;;-1.22;66.92;100882.03;8318802;34;20242;-76
2022/03/03 06:44:05;;;;;;;35.50;17.63;;;;;;;-1.05;66.80;100886.88;8305210;34;20968;-76
2022/03/03 06:49:08;;;;;;;34.87;17.63;;;;;;;-0.71;66.25;100897.44;8307292;34;20151;-76
2022/03/03 06:54:15;;;;;;;32.53;17.87;;;;;;;-0.52;64.91;100877.56;8297107;34;20950;-75
2022/03/03 06:59:22;;;;;;;37.17;17.33;;;;;;;-0.22;64.61;100876.75;8302358;34;20566;-75
2022/03/03 07:04:26;;;;;;;31.47;16.77;;;;;;;0.16;63.41;100876.53;8292069;34;20159;-77
2022/03/03 07:09:31;;;;;;;31.10;17.37;;;;;;;0.58;61.77;100884.03;8305183;34;21044;-75
2022/03/03 07:14:34;;;;;;;36.70;17.10;;;;;;;0.89;60.84;100883.03;8312903;34;20427;-74
2022/03/03 07:19:58;;;;;;;33.60;18.00;;;;;;;1.32;59.55;100878.94;8297487;34;20525;-75
2022/03/03 07:25:06;;;;;;;32.70;17.30;;;;;;;1.65;58.26;100863.63;8296339;34;20432;-75
2022/03/03 07:30:15;;;;;;;30.13;16.57;;;;;;;1.98;57.40;100859.81;8285042;34;20144;-75
2022/03/03 07:35:18;;;;;;;33.67;17.20;;;;;;;2.10;57.25;100864.63;8296506;34;20255;-75
2022/03/03 07:40:23;;;;;;;26.92;13.00;;;;;;;2.62;58.32;100865.25;8297292;34;20225;-75
2022/03/03 07:45:29;;;;;;;24.70;14.45;;;;;;;3.11;55.16;100873.00;8290274;34;20433;-75
2022/03/03 07:50:32;;;;;;;27.88;14.95;;;;;;;3.42;53.47;100864.56;8292385;34;20543;-76
2022/03/03 07:55:44;;;;;;;25.65;14.48;;;;;;;3.67;53.13;100861.69;8289633;34;20472;-75
2022/03/03 08:00:51;;;;;;;28.30;15.02;;;;;;;3.93;52.64;100872.03;8291221;34;20927;-75
2022/03/03 08:05:56;;;;;;;25.77;15.48;;;;;;;4.43;51.66;100872.41;8294749;34;20152;-75
2022/03/03 08:11:05;;;;;;;26.35;16.63;;;;;;;4.83;49.86;100847.38;8305520;34;20831;-75
2022/03/03 08:16:08;;;;;;;27.52;13.43;;;;;;;5.20;49.02;100872.19;8314602;34;20263;-75
2022/03/03 08:21:11;;;;;;;25.55;16.05;;;;;;;5.77;48.33;100874.56;8301760;34;20191;-76
2022/03/03 08:26:18;;;;;;;30.90;17.70;;;;;;;5.80;47.41;100877.06;8298401;34;21054;-76
2022/03/03 08:31:29;;;;;;;35.70;22.50;;;;;;;6.05;47.19;100876.59;8297356;34;20144;-75
2022/03/03 08:36:36;;;;;;;30.67;17.85;;;;;;;6.05;47.42;100873.94;8296477;34;20155;-76
2022/03/03 08:41:41;;;;;;;32.10;19.30;;;;;;;6.42;46.83;100875.44;8288604;34;20199;-75
2022/03/03 08:46:45;;;;;;;30.25;17.17;;;;;;;6.70;45.49;100866.72;8293248;34;20454;-75
2022/03/03 08:51:48;;;;;;;29.75;16.23;;;;;;;6.65;44.98;100867.94;8293498;34;20210;-76
2022/03/03 08:56:52;;;;;;;27.20;16.60;;;;;;;6.13;45.44;100864.56;8293712;34;20175;-75
2022/03/03 09:01:56;;;;;;;26.20;16.13;;;;;;;6.65;45.62;100859.94;8298835;34;20529;-76
2022/03/03 09:07:00;;;;;;;24.50;15.75;;;;;;;7.34;43.38;100872.81;8306889;34;20246;-75
2022/03/03 09:12:05;;;;;;;30.30;16.98;;;;;;;7.37;41.96;100864.59;8301616;34;20199;-75
2022/03/03 09:17:08;;;;;;;27.77;15.38;;;;;;;7.70;40.90;100872.38;8291306;34;20517;-74
2022/03/03 09:22:12;;;;;;;27.63;18.15;;;;;;;7.87;41.27;100863.34;8301298;34;20455;-74
2022/03/03 09:27:16;;;;;;;26.83;16.50;;;;;;;8.29;41.20;100850.03;8301391;34;20243;-74
2022/03/03 09:32:20;;;;;;;25.08;15.43;;;;;;;8.46;39.65;100846.28;8300443;34;20700;-74
2022/03/03 09:37:23;;;;;;;26.52;15.80;;;;;;;8.58;40.59;100841.00;8300609;34;20212;-74
2022/03/03 09:42:33;;;;;;;26.05;16.83;;;;;;;8.63;38.41;100826.44;8294678;34;20251;-74
2022/03/03 09:47:38;;;;;;;31.67;19.27;;;;;;;8.44;39.10;100848.16;8302855;34;20432;-74
2022/03/03 09:52:45;;;;;;;27.33;16.98;;;;;;;8.96;39.68;100850.13;8290271;34;20242;-74
2022/03/03 09:57:51;;;;;;;31.17;17.13;;;;;;;9.53;38.54;100843.59;8294807;34;20243;-74
2022/03/03 10:02:56;;;;;;;24.70;16.52;;;;;;;9.85;37.27;100838.66;8296495;34;20158;-74
2022/03/03 10:08:01;;;;;;;25.48;15.70;;;;;;;10.26;36.47;100842.94;8299062;34;20438;-74
2022/03/03 10:13:08;;;;;;;29.15;16.33;;;;;;;10.56;36.55;100842.50;8298039;34;20489;-74
2022/03/03 10:18:13;;;;;;;28.38;17.70;;;;;;;10.74;36.63;100848.34;8295741;34;20156;-75
2022/03/03 10:23:18;;;;;;;23.63;15.82;;;;;;;11.11;35.15;100843.75;8293886;34;20598;-74
2022/03/03 10:28:25;;;;;;;25.05;16.63;;;;;;;11.51;34.85;100840.69;8295479;34;20424;-74
2022/03/03 10:33:30;;;;;;;29.50;16.73;;;;;;;11.48;34.50;100838.25;8293035;34;20190;-74
2022/03/03 10:38:35;;;;;;;22.77;15.15;;;;;;;11.73;33.19;100838.03;8293958;34;20437;-74
2022/03/03 10:43:49;;;;;;;24.08;15.38;;;;;;;11.93;32.70;100843.69;8293628;34;20606;-74
2022/03/03 10:48:52;;;;;;;23.52;15.65;;;;;;;12.26;32.51;100841.94;8294822;34;20482;-74
2022/03/03 10:54:00;;;;;;;24.52;15.70;;;;;;;12.50;32.19;100850.75;8292233;34;20465;-75
2022/03/03 10:59:04;;;;;;;21.73;15.63;;;;;;;12.88;31.03;100838.63;8298275;34;20219;-74
2022/03/03 11:04:07;;;;;;;23.87;16.53;;;;;;;12.59;31.67;100831.16;8304144;34;20498;-75
2022/03/03 11:09:11;;;;;;;26.23;16.50;;;;;;;13.10;31.85;100832.28;8288944;34;20236;-74
2022/03/03 11:14:15;;;;;;;26.90;17.42;;;;;;;13.78;31.65;100816.56;8297829;34;20234;-74
2022/03/03 11:19:18;;;;;;;22.05;15.00;;;;;;;13.76;30.08;100834.75;8299981;34;20552;-74
2022/03/03 11:24:23;;;;;;;19.35;11.65;;;;;;;13.60;28.61;100821.75;8296264;34;20458;-74
2022/03/03 11:29:29;;;;;;;18.77;11.43;;;;;;;14.47;28.69;100807.72;8297914;34;20147;-75
2022/03/03 11:34:49;;;;;;;15.55;10.45;;;;;;;15.27;26.86;100805.75;8308099;34;20510;-75
2022/03/03 11:39:57;;;;;;;14.23;9.35;;;;;;;15.67;25.83;100808.25;8316142;34;20148;-75
2022/03/03 11:45:22;;;;;;;14.27;9.55;;;;;;;15.61;24.92;100792.59;8299897;34;20478;-75
2022/03/03 11:50:27;;;;;;;14.38;9.30;;;;;;;15.11;26.82;100783.84;8297970;34;20456;-76
2022/03/03 11:55:35;;;;;;;13.50;9.68;;;;;;;15.79;26.92;100778.28;8298202;34;20529;-75
2022/03/03 12:00:43;;;;;;;14.60;10.02;;;;;;;15.08;26.34;100784.97;8299095;34;20132;-75
2022/03/03 12:05:48;;;;;;;17.33;10.05;;;;;;;16.28;26.77;100776.22;8302070;34;20788;-75
2022/03/03 12:11:01;;;;;;;12.57;9.40;;;;;;;16.27;25.51;100771.81;8303150;34;20465;-75
2022/03/03 12:16:30;;;;;;;13.48;8.82;;;;;;;16.73;25.86;100762.63;8302925;34;20144;-75
2022/03/03 12:21:35;;;;;;;12.00;8.80;;;;;;;16.83;24.57;100758.97;8302897;34;20446;-76
2022/03/03 12:27:01;;;;;;;11.70;7.55;;;;;;;16.96;23.89;100757.56;8303453;34;20497;-75
2022/03/03 12:33:07;;;;;;;11.27;7.80;;;;;;;17.40;23.45;100760.28;8299158;34;20452;-76
2022/03/03 12:38:11;;;;;;;12.98;8.52;;;;;;;17.18;22.89;100753.53;8303994;34;20590;-75
2022/03/03 12:43:17;;;;;;;15.15;10.30;;;;;;;16.59;24.07;100757.72;8304319;34;20974;-75
2022/03/03 12:48:30;;;;;;;17.10;10.57;;;;;;;16.91;23.99;100759.88;8314213;34;20151;-75
2022/03/03 12:53:37;;;;;;;13.80;10.32;;;;;;;17.38;23.63;100732.44;8315806;34;20521;-74
2022/03/03 12:58:40;;;;;;;13.38;10.07;;;;;;;17.98;23.40;100742.44;8317024;34;20195;-75
2022/03/03 13:03:43;;;;;;;11.90;8.35;;;;;;;17.95;21.54;100736.47;8317182;34;20152;-75
2022/03/03 13:08:58;;;;;;;12.52;8.93;;;;;;;17.35;22.96;100731.91;8316089;34;20140;-75
2022/03/03 13:14:06;;;;;;;17.50;10.98;;;;;;;17.34;23.92;100724.78;8305837;34;20140;-74
2022/03/03 13:19:12;;;;;;;11.38;8.10;;;;;;;16.83;22.42;100721.00;8310185;34;20155;-74
2022/03/03 13:24:26;;;;;;;12.27;9.15;;;;;;;16.82;23.67;100725.56;8317071;34;20502;-74
2022/03/03 13:29:30;;;;;;;15.02;8.75;;;;;;;17.39;23.26;100709.72;8306282;34;20222;-74
2022/03/03 13:34:33;;;;;;;11.93;9.10;;;;;;;18.50;22.09;100703.31;8306505;34;20618;-74
2022/03/03 13:39:38;;;;;;;15.35;9.43;;;;;;;19.34;21.12;100703.97;8300224;34;20155;-74
2022/03/03 13:44:57;;;;;;;13.75;9.70;;;;;;;20.10;19.96;100703.34;8301541;34;20466;-74
2022/03/03 13:50:01;;;;;;;12.02;9.25;;;;;;;20.55;19.71;100698.13;8300687;34;20447;-74
2022/03/03 13:55:15;;;;;;;10.68;7.43;;;;;;;20.12;19.39;100704.00;8298922;34;20507;-74
2022/03/03 14:00:25;;;;;;;8.77;6.05;;;;;;;19.59;19.76;100707.50;8299035;34;20450;-74
2022/03/03 14:05:37;;;;;;;9.23;6.35;;;;;;;19.10;19.97;100696.69;8299819;34;20194;-74
2022/03/03 14:10:52;;;;;;;6.63;5.38;;;;;;;19.21;19.45;100697.19;8296732;34;20415;-74
2022/03/03 14:15:57;;;;;;;8.38;4.70;;;;;;;19.60;19.20;100699.13;8296516;34;20199;-73
2022/03/03 14:21:00;;;;;;;8.52;5.18;;;;;;;20.31;18.99;100702.72;8299491;34;20175;-75
2022/03/03 14:26:07;;;;;;;8.80;5.40;;;;;;;19.99;19.23;100692.81;8296575;34;20155;-75
2022/03/03 14:31:10;;;;;;;7.97;5.70;;;;;;;19.99;19.30;100695.53;8287650;34;20138;-75
2022/03/03 14:36:13;;;;;;;9.82;7.40;;;;;;;19.76;19.90;100686.47;8299903;34;20151;-75
2022/03/03 14:41:18;;;;;;;8.88;6.22;;;;;;;19.07;20.08;100689.72;8297846;34;20437;-75
2022/03/03 14:46:21;;;;;;;7.90;5.22;;;;;;;18.99;19.79;100687.84;8297187;34;20614;-75
2022/03/03 14:51:24;;;;;;;6.88;4.97;;;;;;;18.13;20.26;100699.19;8285128;34;20588;-75
2022/03/03 14:56:28;;;;;;;5.22;4.40;;;;;;;17.12;20.49;100683.56;8290941;34;20144;-74
2022/03/03 15:01:31;;;;;;;8.20;5.45;;;;;;;16.20;21.75;100694.78;8291885;34;21002;-75
2022/03/03 15:06:35;;;;;;;7.70;5.70;;;;;;;15.44;22.68;100699.47;8293040;34;20148;-75
2022/03/03 15:11:39;;;;;;;8.48;5.45;;;;;;;14.91;22.99;100697.31;8297672;34;20133;-74
2022/03/03 15:16:42;;;;;;;9.50;6.30;;;;;;;13.70;24.42;100713.81;8297704;34;20505;-74
2022/03/03 15:21:45;;;;;;;9.63;6.13;;;;;;;13.90;24.51;100703.91;8302896;34;21244;-74
2022/03/03 15:26:50;;;;;;;9.10;6.38;;;;;;;13.37;25.11;100701.47;8302953;34;20440;-74
2022/03/03 15:31:54;;;;;;;12.88;7.90;;;;;;;13.14;26.47;100701.59;8303044;34;20136;-74
2022/03/03 15:36:59;;;;;;;12.13;7.65;;;;;;;13.31;26.68;100712.75;8303455;34;20633;-74
2022/03/03 15:42:05;;;;;;;13.48;7.95;;;;;;;12.93;26.62;100709.69;8302797;34;20526;-74
2022/03/03 15:47:09;;;;;;;10.02;6.53;;;;;;;12.75;27.21;100706.75;8303259;34;20462;-74
2022/03/03 15:52:12;;;;;;;12.00;8.00;;;;;;;12.60;27.77;100713.44;8307307;34;20469;-74
2022/03/03 15:57:17;;;;;;;8.27;6.25;;;;;;;11.62;27.50;100722.31;8302455;34;20462;-74
2022/03/03 16:02:19;;;;;;;9.65;6.28;;;;;;;11.56;28.45;100717.44;8302704;34;20136;-74
2022/03/03 16:07:23;;;;;;;11.20;6.93;;;;;;;11.33;29.15;100715.72;8302984;34;20144;-74
2022/03/03 16:12:27;;;;;;;10.80;6.35;;;;;;;11.45;28.96;100726.34;8294473;34;20139;-74
2022/03/03 16:17:30;;;;;;;12.63;7.32;;;;;;;11.26;30.19;100732.31;8303344;34;20740;-74
2022/03/03 16:22:34;;;;;;;15.32;9.27;;;;;;;11.02;31.30;100742.28;8304199;34;20536;-74
2022/03/03 16:27:38;;;;;;;16.13;9.30;;;;;;;10.79;31.52;100735.97;8314136;34;20175;-74
2022/03/03 16:32:43;;;;;;;15.80;9.02;;;;;;;10.52;32.17;100733.56;8315193;34;20524;-74
2022/03/03 16:37:46;;;;;;;14.88;9.63;;;;;;;10.15;32.86;100730.94;8316201;34;21076;-74
2022/03/03 16:42:51;;;;;;;18.13;9.57;;;;;;;10.00;33.64;100732.91;8317400;34;20515;-74
2022/03/03 16:47:58;;;;;;;15.48;9.75;;;;;;;9.41;34.58;100738.91;8322296;34;20459;-74
2022/03/03 16:53:01;;;;;;;18.42;9.82;;;;;;;8.95;35.37;100738.56;8320334;34;20136;-74
2022/03/03 16:58:05;;;;;;;18.73;10.15;;;;;;;8.49;36.46;100752.38;8328912;34;20687;-74
2022/03/03 17:03:08;;;;;;;18.67;11.50;;;;;;;8.12;37.31;100757.47;8318928;34;20499;-75
2022/03/03 17:15:20;;;;;;;21.92;12.20;;;;;;;7.48;39.20;100759.72;8314542;34;20140;-75
2022/03/03 17:20:24;;;;;;;22.83;12.02;;;;;;;7.28;39.97;100760.94;8304053;34;20471;-75
2022/03/03 17:25:27;;;;;;;22.55;11.90;;;;;;;7.10;40.22;100762.91;8311389;34;20683;-75
2022/03/03 17:30:32;;;;;;;23.77;11.90;;;;;;;6.92;40.70;100762.22;8306671;34;20183;-74
2022/03/03 17:35:36;;;;;;;19.60;11.30;;;;;;;6.77;41.27;100776.44;8302334;34;20154;-75
2022/03/03 17:40:39;;;;;;;22.85;12.20;;;;;;;6.67;41.47;100784.16;8300248;34;20156;-75
2022/03/03 17:45:43;;;;;;;22.30;11.82;;;;;;;6.47;42.15;100782.59;8300857;34;20144;-74
2022/03/03 17:50:47;;;;;;;21.98;12.52;;;;;;;6.27;42.53;100789.09;8300855;34;20900;-74
2022/03/03 17:55:50;;;;;;;19.05;11.57;;;;;;;6.17;42.95;100791.44;8300746;34;20679;-74
2022/03/03 18:00:54;;;;;;;20.80;10.45;;;;;;;6.03;43.16;100798.47;8357528;28;20213;-75
2022/03/03 18:05:57;;;;;;;21.98;11.48;;;;;;;5.89;43.85;100791.22;8360830;34;20913;-75
2022/03/03 18:11:02;;;;;;;25.85;14.27;;;;;;;5.75;44.64;100802.66;8308820;34;20723;-75
2022/03/03 18:16:06;;;;;;;30.55;15.38;;;;;;;5.66;44.63;100797.84;8304741;34;20707;-75
2022/03/03 18:21:09;;;;;;;26.50;13.35;;;;;;;5.54;45.26;100806.47;8282470;34;20987;-75
2022/03/03 18:26:13;;;;;;;26.85;14.38;;;;;;;5.48;45.37;100805.84;8306908;34;20416;-75
2022/03/03 18:31:18;;;;;;;26.20;13.38;;;;;;;5.34;45.94;100805.72;8307124;34;20617;-74
2022/03/03 18:36:26;;;;;;;27.08;12.82;;;;;;;5.27;46.14;100815.84;8304576;34;20136;-75
2022/03/03 18:41:29;;;;;;;26.17;13.63;;;;;;;5.14;46.50;100814.75;8306472;34;20726;-73
2022/03/03 18:46:34;;;;;;;27.23;13.95;;;;;;;5.01;46.59;100818.97;8303137;34;21099;-73
2022/03/03 18:51:37;;;;;;;28.33;15.23;;;;;;;4.97;47.06;100825.38;8303605;34;20549;-73
2022/03/03 18:56:40;;;;;;;30.98;16.05;;;;;;;4.83;47.38;100818.94;8301782;34;20566;-73
2022/03/03 19:01:45;;;;;;;29.73;15.63;;;;;;;4.74;47.97;100826.53;8304679;34;20447;-73
2022/03/03 19:06:48;;;;;;;26.08;14.63;;;;;;;4.79;48.15;100836.00;8280962;34;20203;-75
2022/03/03 19:11:51;;;;;;;27.33;15.57;;;;;;;4.73;48.35;100835.44;8304095;34;20239;-75
2022/03/03 19:17:00;;;;;;;32.03;17.42;;;;;;;4.62;48.59;100836.84;8305825;34;20440;-74
2022/03/03 19:22:04;;;;;;;32.80;15.73;;;;;;;4.43;49.34;100846.66;8298640;34;20511;-75
2022/03/03 19:27:08;;;;;;;29.30;14.90;;;;;;;4.29;49.73;100851.78;8297412;34;20502;-75
2022/03/03 19:37:32;;;;;;;26.33;13.82;;;;;;;4.11;51.63;100854.38;8302153;34;20609;-74
2022/03/03 19:42:35;;;;;;;27.10;13.10;;;;;;;4.03;52.82;100860.97;8302627;34;20514;-74
2022/03/03 19:47:40;;;;;;;23.88;12.15;;;;;;;3.95;53.05;100869.31;8300073;34;21080;-75
2022/03/03 19:52:43;;;;;;;28.95;13.65;;;;;;;3.92;53.63;100869.41;8299238;34;20246;-74
2022/03/03 19:57:47;;;;;;;22.80;11.90;;;;;;;3.88;53.82;100866.03;8301571;34;21095;-74
2022/03/03 20:02:52;;;;;;;25.23;13.70;;;;;;;3.75;54.26;100877.31;8305384;34;20994;-75
2022/03/03 20:07:55;;;;;;;29.67;13.93;;;;;;;3.61;54.62;100884.09;8308752;34;20476;-74
2022/03/03 20:12:59;;;;;;;24.67;13.77;;;;;;;3.53;55.72;100885.34;8317767;34;20132;-75
2022/03/03 20:18:05;;;;;;;31.13;15.27;;;;;;;3.55;55.86;100895.00;8317256;34;20171;-73
2022/03/03 20:23:28;;;;;;;26.83;14.68;;;;;;;3.56;56.04;100895.84;8319812;34;20512;-72
2022/03/03 20:28:33;;;;;;;26.33;15.18;;;;;;;3.42;56.72;100901.75;8320638;34;20954;-75
2022/03/03 20:33:39;;;;;;;26.63;14.48;;;;;;;3.31;57.09;100906.66;8322539;34;20458;-73
2022/03/03 20:38:42;;;;;;;34.95;17.52;;;;;;;3.22;57.73;100907.94;8323187;34;20147;-75
2022/03/03 20:43:45;;;;;;;38.53;19.02;;;;;;;3.09;58.86;100923.50;8319656;34;20534;-75
2022/03/03 20:48:50;;;;;;;40.08;18.85;;;;;;;2.97;59.18;100916.91;8316611;34;21057;-75
2022/03/03 20:53:53;;;;;;;39.00;18.97;;;;;;;2.93;59.36;100920.59;8316200;34;20509;-75
2022/03/03 20:58:56;;;;;;;28.80;15.35;;;;;;;2.90;59.61;100931.34;8310561;34;20495;-73
2022/03/03 21:04:01;;;;;;;29.98;16.25;;;;;;;2.83;60.08;100929.88;8301219;34;20430;-73
2022/03/03 21:09:04;;;;;;;30.27;15.50;;;;;;;2.61;60.69;100932.50;8279787;34;20152;-75
2022/03/03 21:14:07;;;;;;;28.17;14.48;;;;;;;2.47;61.25;100933.03;8303183;34;20146;-75
2022/03/03 21:19:12;;;;;;;27.00;14.05;;;;;;;2.21;62.12;100930.50;8302058;34;20442;-75
2022/03/03 21:24:15;;;;;;;26.15;13.77;;;;;;;2.18;62.82;100928.81;8302333;34;20140;-75
2022/03/03 21:29:18;;;;;;;29.13;14.40;;;;;;;2.11;63.55;100936.16;8302368;34;20148;-75
2022/03/03 21:34:22;;;;;;;25.85;13.25;;;;;;;1.96;63.86;100931.41;8300661;34;20295;-75
2022/03/03 21:39:25;;;;;;;23.83;13.02;;;;;;;1.97;64.69;100933.13;8306573;34;20673;-75
2022/03/03 21:44:28;;;;;;;27.55;14.43;;;;;;;2.02;64.60;100935.59;8305741;34;20647;-75
2022/03/03 21:49:33;;;;;;;33.50;18.88;;;;;;;2.10;64.67;100934.41;8305569;34;20483;-75
2022/03/03 21:54:36;;;;;;;28.80;13.35;;;;;;;1.99;64.21;100947.19;8305508;34;20672;-75
2022/03/03 21:59:40;;;;;;;22.27;11.10;;;;;;;2.02;63.72;100941.75;8307194;34;20621;-75
2022/03/03 22:04:44;;;;;;;22.25;10.30;;;;;;;1.77;63.50;100944.44;8306581;34;20664;-75
2022/03/03 22:09:48;;;;;;;22.07;11.80;;;;;;;1.68;63.59;100955.38;8305477;34;20451;-75
2022/03/03 22:14:51;;;;;;;23.10;12.05;;;;;;;1.47;64.46;100956.97;8301556;34;20335;-75
2022/03/03 22:19:59;;;;;;;19.73;10.50;;;;;;;1.14;65.47;100962.47;8305340;34;20521;-74
2022/03/03 22:25:03;;;;;;;27.37;13.33;;;;;;;1.04;65.87;100959.28;8306684;34;20466;-75
2022/03/03 22:30:08;;;;;;;26.75;12.32;;;;;;;0.98;66.32;100967.38;8301390;34;20314;-74
2022/03/03 22:35:13;;;;;;;21.60;11.80;;;;;;;0.82;66.99;100968.78;8279831;34;20471;-74
2022/03/03 22:40:16;;;;;;;30.03;14.77;;;;;;;0.77;67.06;100961.00;8306430;34;20675;-75
2022/03/03 22:45:19;;;;;;;31.40;15.70;;;;;;;0.60;67.78;100969.47;8303576;34;20432;-75
2022/03/03 22:55:44;;;;;;;35.47;15.97;;;;;;;0.41;67.75;100965.59;8301547;34;20684;-75
2022/03/03 23:01:14;;;;;;;30.67;15.27;;;;;;;0.41;68.22;100970.91;8302149;34;20420;-75
2022/03/03 23:06:19;;;;;;;33.37;17.23;;;;;;;0.40;67.83;100982.41;8305334;34;20426;-75
2022/03/03 23:11:22;;;;;;;33.63;16.77;;;;;;;0.27;68.46;100975.72;8308614;34;20720;-75
2022/03/03 23:16:27;;;;;;;37.57;16.90;;;;;;;0.19;68.37;100981.22;8302170;34;21008;-75
2022/03/03 23:21:32;;;;;;;38.80;17.17;;;;;;;0.05;68.78;100980.75;8302092;34;20475;-75
2022/03/03 23:26:36;;;;;;;43.23;18.33;;;;;;;-0.02;69.55;100981.84;8299868;34;20476;-75
2022/03/03 23:31:40;;;;;;;41.23;17.87;;;;;;;-0.07;69.74;100979.31;8298039;34;20668;-75
2022/03/03 23:36:45;;;;;;;41.70;17.97;;;;;;;-0.15;69.78;100984.81;8274854;34;20191;-75